sensor_id;sensor_type;location;lat;lon;timestamp;P1;durP1;ratioP1;P2;durP2;ratioP2
8596;SDS011;4336;49.310;8.646;2023-05-10T00:02:14;8.23;;;7.47;;
8596;SDS011;4336;49.310;8.646;2023-05-10T00:04:40;8.00;;;7.20;;
8596;SDS011;4336;49.310;8.646;2023-05-10T00:07:06;7.63;;;7.00;;
8596;SDS011;4336;49.310;8.646;2023-05-10T00:09:32;8.50;;;7.80;;
8596;SDS011;4336;49.310;8.646;2023-05-10T00:11:58;8.13;;;7.33;;
8596;SDS011;4336;49.310;8.646;2023-05-10T00:14:24;6.70;;;6.20;;
8596;SDS011;4336;49.310;8.646;2023-05-10T00:16:50;7.40;;;5.77;;
8596;SDS011;4336;49.310;8.646;2023-05-10T00:19:16;8.77;;;6.93;;
8596;SDS011;4336;49.310;8.646;2023-05-10T00:21:41;7.00;;;6.40;;
8596;SDS011;4336;49.310;8.646;2023-05-10T00:24:07;7.90;;;7.10;;
8596;SDS011;4336;49.310;8.646;2023-05-10T00:26:33;6.97;;;5.63;;
8596;SDS011;4336;49.310;8.646;2023-05-10T00:29:00;7.27;;;6.77;;
8596;SDS011;4336;49.310;8.646;2023-05-10T00:31:26;7.53;;;6.87;;
8596;SDS011;4336;49.310;8.646;2023-05-10T00:33:52;6.27;;;5.67;;
8596;SDS011;4336;49.310;8.646;2023-05-10T00:36:18;7.90;;;7.20;;
8596;SDS011;4336;49.310;8.646;2023-05-10T00:38:45;7.70;;;7.00;;
8596;SDS011;4336;49.310;8.646;2023-05-10T00:41:12;7.80;;;7.20;;
8596;SDS011;4336;49.310;8.646;2023-05-10T00:43:39;8.20;;;7.40;;
8596;SDS011;4336;49.310;8.646;2023-05-10T00:46:05;7.60;;;6.60;;
8596;SDS011;4336;49.310;8.646;2023-05-10T00:48:32;7.63;;;6.83;;
8596;SDS011;4336;49.310;8.646;2023-05-10T00:50:58;6.87;;;6.27;;
8596;SDS011;4336;49.310;8.646;2023-05-10T00:53:24;6.83;;;6.30;;
8596;SDS011;4336;49.310;8.646;2023-05-10T00:55:50;6.83;;;5.60;;
8596;SDS011;4336;49.310;8.646;2023-05-10T00:58:17;7.20;;;6.60;;
8596;SDS011;4336;49.310;8.646;2023-05-10T01:00:43;7.30;;;6.70;;
8596;SDS011;4336;49.310;8.646;2023-05-10T01:03:13;6.97;;;6.17;;
8596;SDS011;4336;49.310;8.646;2023-05-10T01:05:40;6.83;;;6.23;;
8596;SDS011;4336;49.310;8.646;2023-05-10T01:08:06;6.20;;;5.80;;
8596;SDS011;4336;49.310;8.646;2023-05-10T01:10:33;5.27;;;4.93;;
8596;SDS011;4336;49.310;8.646;2023-05-10T01:13:01;11.50;;;10.40;;
8596;SDS011;4336;49.310;8.646;2023-05-10T01:15:28;9.47;;;8.53;;
8596;SDS011;4336;49.310;8.646;2023-05-10T01:17:54;18.00;;;16.20;;
8596;SDS011;4336;49.310;8.646;2023-05-10T01:20:22;6.70;;;6.13;;
8596;SDS011;4336;49.310;8.646;2023-05-10T01:23:02;6.60;;;6.00;;
8596;SDS011;4336;49.310;8.646;2023-05-10T01:35:56;7.80;;;6.30;;
8596;SDS011;4336;49.310;8.646;2023-05-10T01:38:29;7.00;;;6.30;;
8596;SDS011;4336;49.310;8.646;2023-05-10T01:43:32;6.90;;;6.50;;
8596;SDS011;4336;49.310;8.646;2023-05-10T01:46:03;7.70;;;6.90;;
8596;SDS011;4336;49.310;8.646;2023-05-10T01:48:36;8.23;;;7.53;;
8596;SDS011;4336;49.310;8.646;2023-05-10T01:51:03;13.47;;;12.30;;
8596;SDS011;4336;49.310;8.646;2023-05-10T01:53:31;7.40;;;6.80;;
8596;SDS011;4336;49.310;8.646;2023-05-10T01:55:58;7.10;;;6.60;;
8596;SDS011;4336;49.310;8.646;2023-05-10T01:58:26;7.00;;;6.10;;
8596;SDS011;4336;49.310;8.646;2023-05-10T02:00:53;8.07;;;6.87;;
8596;SDS011;4336;49.310;8.646;2023-05-10T02:03:23;8.23;;;6.60;;
8596;SDS011;4336;49.310;8.646;2023-05-10T02:05:49;17.27;;;15.73;;
8596;SDS011;4336;49.310;8.646;2023-05-10T02:08:16;8.33;;;5.30;;
8596;SDS011;4336;49.310;8.646;2023-05-10T02:10:44;8.47;;;6.57;;
8596;SDS011;4336;49.310;8.646;2023-05-10T02:13:10;6.67;;;6.03;;
8596;SDS011;4336;49.310;8.646;2023-05-10T02:15:37;7.53;;;6.97;;
8596;SDS011;4336;49.310;8.646;2023-05-10T02:18:04;7.30;;;6.60;;
8596;SDS011;4336;49.310;8.646;2023-05-10T02:20:31;7.50;;;6.90;;
8596;SDS011;4336;49.310;8.646;2023-05-10T02:22:58;7.73;;;6.60;;
8596;SDS011;4336;49.310;8.646;2023-05-10T02:25:25;7.27;;;6.67;;
8596;SDS011;4336;49.310;8.646;2023-05-10T02:27:54;6.37;;;5.83;;
8596;SDS011;4336;49.310;8.646;2023-05-10T02:30:21;8.20;;;7.03;;
8596;SDS011;4336;49.310;8.646;2023-05-10T02:32:49;7.43;;;6.73;;
8596;SDS011;4336;49.310;8.646;2023-05-10T02:35:16;7.10;;;6.50;;
8596;SDS011;4336;49.310;8.646;2023-05-10T02:37:43;7.93;;;6.90;;
8596;SDS011;4336;49.310;8.646;2023-05-10T02:40:09;9.03;;;7.37;;
8596;SDS011;4336;49.310;8.646;2023-05-10T02:42:37;7.40;;;6.90;;
8596;SDS011;4336;49.310;8.646;2023-05-10T02:45:11;6.20;;;5.67;;
8596;SDS011;4336;49.310;8.646;2023-05-10T02:47:38;8.47;;;7.10;;
8596;SDS011;4336;49.310;8.646;2023-05-10T02:50:04;7.80;;;7.00;;
8596;SDS011;4336;49.310;8.646;2023-05-10T02:52:35;7.93;;;7.20;;
8596;SDS011;4336;49.310;8.646;2023-05-10T02:55:03;7.97;;;7.37;;
8596;SDS011;4336;49.310;8.646;2023-05-10T02:57:34;7.80;;;7.20;;
8596;SDS011;4336;49.310;8.646;2023-05-10T03:00:00;6.90;;;6.43;;
8596;SDS011;4336;49.310;8.646;2023-05-10T03:02:28;7.90;;;7.20;;
8596;SDS011;4336;49.310;8.646;2023-05-10T03:04:56;8.43;;;7.03;;
8596;SDS011;4336;49.310;8.646;2023-05-10T03:07:22;8.13;;;7.53;;
8596;SDS011;4336;49.310;8.646;2023-05-10T03:09:48;7.40;;;6.80;;
8596;SDS011;4336;49.310;8.646;2023-05-10T03:12:39;8.57;;;7.67;;
8596;SDS011;4336;49.310;8.646;2023-05-10T03:20:42;8.00;;;7.40;;
8596;SDS011;4336;49.310;8.646;2023-05-10T03:23:27;7.80;;;7.20;;
8596;SDS011;4336;49.310;8.646;2023-05-10T03:25:53;8.40;;;7.63;;
8596;SDS011;4336;49.310;8.646;2023-05-10T03:28:20;8.37;;;7.57;;
8596;SDS011;4336;49.310;8.646;2023-05-10T03:30:47;9.03;;;8.30;;
8596;SDS011;4336;49.310;8.646;2023-05-10T03:33:13;10.60;;;8.13;;
8596;SDS011;4336;49.310;8.646;2023-05-10T03:35:43;8.67;;;7.87;;
8596;SDS011;4336;49.310;8.646;2023-05-10T03:38:11;8.30;;;7.60;;
8596;SDS011;4336;49.310;8.646;2023-05-10T03:40:38;9.07;;;8.27;;
8596;SDS011;4336;49.310;8.646;2023-05-10T03:43:04;9.03;;;8.33;;
8596;SDS011;4336;49.310;8.646;2023-05-10T03:45:30;7.93;;;7.13;;
8596;SDS011;4336;49.310;8.646;2023-05-10T03:47:57;9.13;;;8.07;;
8596;SDS011;4336;49.310;8.646;2023-05-10T03:50:24;9.40;;;8.50;;
8596;SDS011;4336;49.310;8.646;2023-05-10T03:52:51;9.80;;;8.90;;
8596;SDS011;4336;49.310;8.646;2023-05-10T03:55:17;8.97;;;8.03;;
8596;SDS011;4336;49.310;8.646;2023-05-10T03:57:44;9.97;;;8.73;;
8596;SDS011;4336;49.310;8.646;2023-05-10T04:00:10;8.67;;;8.07;;
8596;SDS011;4336;49.310;8.646;2023-05-10T04:02:39;20.73;;;8.20;;
8596;SDS011;4336;49.310;8.646;2023-05-10T04:05:09;8.63;;;8.00;;
8596;SDS011;4336;49.310;8.646;2023-05-10T04:07:35;9.20;;;8.17;;
8596;SDS011;4336;49.310;8.646;2023-05-10T04:10:01;8.83;;;8.03;;
8596;SDS011;4336;49.310;8.646;2023-05-10T04:12:27;13.13;;;6.87;;
8596;SDS011;4336;49.310;8.646;2023-05-10T04:14:53;9.37;;;8.23;;
8596;SDS011;4336;49.310;8.646;2023-05-10T04:17:20;8.17;;;7.57;;
8596;SDS011;4336;49.310;8.646;2023-05-10T04:19:46;9.10;;;8.20;;
8596;SDS011;4336;49.310;8.646;2023-05-10T04:22:12;13.43;;;8.00;;
8596;SDS011;4336;49.310;8.646;2023-05-10T04:24:38;10.83;;;7.97;;
8596;SDS011;4336;49.310;8.646;2023-05-10T04:27:04;8.07;;;7.27;;
8596;SDS011;4336;49.310;8.646;2023-05-10T04:29:30;9.57;;;8.60;;
8596;SDS011;4336;49.310;8.646;2023-05-10T04:31:57;9.53;;;8.63;;
8596;SDS011;4336;49.310;8.646;2023-05-10T04:34:23;12.13;;;9.37;;
8596;SDS011;4336;49.310;8.646;2023-05-10T04:36:49;11.00;;;9.90;;
8596;SDS011;4336;49.310;8.646;2023-05-10T04:39:15;13.07;;;11.70;;
8596;SDS011;4336;49.310;8.646;2023-05-10T04:41:41;16.50;;;11.03;;
8596;SDS011;4336;49.310;8.646;2023-05-10T04:44:07;12.03;;;9.67;;
8596;SDS011;4336;49.310;8.646;2023-05-10T04:46:33;10.70;;;9.67;;
8596;SDS011;4336;49.310;8.646;2023-05-10T04:49:00;11.20;;;10.10;;
8596;SDS011;4336;49.310;8.646;2023-05-10T04:51:26;11.10;;;10.20;;
8596;SDS011;4336;49.310;8.646;2023-05-10T04:53:52;12.63;;;9.90;;
8596;SDS011;4336;49.310;8.646;2023-05-10T04:56:18;13.13;;;12.03;;
8596;SDS011;4336;49.310;8.646;2023-05-10T04:58:44;30.90;;;27.93;;
8596;SDS011;4336;49.310;8.646;2023-05-10T05:01:11;12.73;;;11.03;;
8596;SDS011;4336;49.310;8.646;2023-05-10T05:03:37;11.30;;;10.30;;
8596;SDS011;4336;49.310;8.646;2023-05-10T05:06:03;14.40;;;10.20;;
8596;SDS011;4336;49.310;8.646;2023-05-10T05:08:30;10.53;;;9.53;;
8596;SDS011;4336;49.310;8.646;2023-05-10T05:10:56;10.90;;;10.00;;
8596;SDS011;4336;49.310;8.646;2023-05-10T05:13:22;16.20;;;14.63;;
8596;SDS011;4336;49.310;8.646;2023-05-10T05:15:48;17.63;;;14.73;;
8596;SDS011;4336;49.310;8.646;2023-05-10T05:18:14;11.43;;;10.33;;
8596;SDS011;4336;49.310;8.646;2023-05-10T05:20:41;11.10;;;10.10;;
8596;SDS011;4336;49.310;8.646;2023-05-10T05:23:07;11.77;;;10.67;;
8596;SDS011;4336;49.310;8.646;2023-05-10T05:25:33;14.57;;;12.93;;
8596;SDS011;4336;49.310;8.646;2023-05-10T05:27:59;21.40;;;17.27;;
8596;SDS011;4336;49.310;8.646;2023-05-10T05:30:25;15.17;;;13.53;;
8596;SDS011;4336;49.310;8.646;2023-05-10T05:32:52;12.57;;;11.37;;
8596;SDS011;4336;49.310;8.646;2023-05-10T05:35:18;10.90;;;9.80;;
8596;SDS011;4336;49.310;8.646;2023-05-10T05:37:44;11.13;;;10.23;;
8596;SDS011;4336;49.310;8.646;2023-05-10T05:40:12;11.53;;;9.63;;
8596;SDS011;4336;49.310;8.646;2023-05-10T05:42:39;10.40;;;9.37;;
8596;SDS011;4336;49.310;8.646;2023-05-10T05:45:05;10.47;;;9.47;;
8596;SDS011;4336;49.310;8.646;2023-05-10T05:47:31;9.57;;;8.50;;
8596;SDS011;4336;49.310;8.646;2023-05-10T05:49:57;11.87;;;10.77;;
8596;SDS011;4336;49.310;8.646;2023-05-10T05:52:23;11.00;;;9.90;;
8596;SDS011;4336;49.310;8.646;2023-05-10T05:54:50;10.07;;;8.97;;
8596;SDS011;4336;49.310;8.646;2023-05-10T05:57:16;10.00;;;9.03;;
8596;SDS011;4336;49.310;8.646;2023-05-10T05:59:42;10.97;;;10.07;;
8596;SDS011;4336;49.310;8.646;2023-05-10T06:02:09;10.80;;;9.73;;
8596;SDS011;4336;49.310;8.646;2023-05-10T06:04:35;12.33;;;10.37;;
8596;SDS011;4336;49.310;8.646;2023-05-10T06:07:01;11.13;;;10.13;;
8596;SDS011;4336;49.310;8.646;2023-05-10T06:09:28;11.13;;;10.03;;
8596;SDS011;4336;49.310;8.646;2023-05-10T06:11:54;10.60;;;9.70;;
8596;SDS011;4336;49.310;8.646;2023-05-10T06:14:20;11.50;;;9.50;;
8596;SDS011;4336;49.310;8.646;2023-05-10T06:16:47;9.93;;;9.13;;
8596;SDS011;4336;49.310;8.646;2023-05-10T06:19:13;10.00;;;9.03;;
8596;SDS011;4336;49.310;8.646;2023-05-10T06:21:39;10.77;;;9.80;;
8596;SDS011;4336;49.310;8.646;2023-05-10T06:24:05;10.67;;;9.60;;
8596;SDS011;4336;49.310;8.646;2023-05-10T06:26:32;12.10;;;10.87;;
8596;SDS011;4336;49.310;8.646;2023-05-10T06:28:58;20.37;;;14.27;;
8596;SDS011;4336;49.310;8.646;2023-05-10T06:31:24;20.70;;;15.77;;
8596;SDS011;4336;49.310;8.646;2023-05-10T06:33:50;15.03;;;13.07;;
8596;SDS011;4336;49.310;8.646;2023-05-10T06:36:16;12.47;;;11.17;;
8596;SDS011;4336;49.310;8.646;2023-05-10T06:38:43;11.33;;;10.13;;
8596;SDS011;4336;49.310;8.646;2023-05-10T06:41:09;12.40;;;10.53;;
8596;SDS011;4336;49.310;8.646;2023-05-10T06:43:35;9.80;;;8.93;;
8596;SDS011;4336;49.310;8.646;2023-05-10T06:46:05;9.80;;;8.90;;
8596;SDS011;4336;49.310;8.646;2023-05-10T06:48:32;9.40;;;8.50;;
8596;SDS011;4336;49.310;8.646;2023-05-10T06:50:59;10.00;;;9.00;;
8596;SDS011;4336;49.310;8.646;2023-05-10T06:53:25;9.97;;;9.07;;
8596;SDS011;4336;49.310;8.646;2023-05-10T06:55:51;9.83;;;8.90;;
8596;SDS011;4336;49.310;8.646;2023-05-10T06:58:17;8.27;;;7.03;;
8596;SDS011;4336;49.310;8.646;2023-05-10T07:00:44;9.10;;;7.97;;
8596;SDS011;4336;49.310;8.646;2023-05-10T07:03:11;8.87;;;8.00;;
8596;SDS011;4336;49.310;8.646;2023-05-10T07:05:37;13.27;;;12.17;;
8596;SDS011;4336;49.310;8.646;2023-05-10T07:08:04;10.63;;;9.53;;
8596;SDS011;4336;49.310;8.646;2023-05-10T07:10:30;9.67;;;8.67;;
8596;SDS011;4336;49.310;8.646;2023-05-10T07:12:56;12.90;;;11.83;;
8596;SDS011;4336;49.310;8.646;2023-05-10T07:15:26;14.27;;;10.53;;
8596;SDS011;4336;49.310;8.646;2023-05-10T07:17:53;9.43;;;8.37;;
8596;SDS011;4336;49.310;8.646;2023-05-10T07:20:18;8.90;;;8.07;;
8596;SDS011;4336;49.310;8.646;2023-05-10T07:22:44;7.77;;;7.07;;
8596;SDS011;4336;49.310;8.646;2023-05-10T07:25:10;8.00;;;7.40;;
8596;SDS011;4336;49.310;8.646;2023-05-10T07:27:36;8.30;;;7.57;;
8596;SDS011;4336;49.310;8.646;2023-05-10T07:30:03;8.80;;;7.97;;
8596;SDS011;4336;49.310;8.646;2023-05-10T07:32:29;8.23;;;7.53;;
8596;SDS011;4336;49.310;8.646;2023-05-10T07:34:55;8.00;;;6.53;;
8596;SDS011;4336;49.310;8.646;2023-05-10T07:37:21;9.83;;;6.93;;
8596;SDS011;4336;49.310;8.646;2023-05-10T07:39:47;13.83;;;12.47;;
8596;SDS011;4336;49.310;8.646;2023-05-10T07:42:12;11.47;;;10.37;;
8596;SDS011;4336;49.310;8.646;2023-05-10T07:44:39;8.10;;;7.30;;
8596;SDS011;4336;49.310;8.646;2023-05-10T07:47:04;8.50;;;7.13;;
8596;SDS011;4336;49.310;8.646;2023-05-10T07:49:30;6.47;;;5.87;;
8596;SDS011;4336;49.310;8.646;2023-05-10T07:51:56;7.83;;;7.03;;
8596;SDS011;4336;49.310;8.646;2023-05-10T07:54:22;7.33;;;6.77;;
8596;SDS011;4336;49.310;8.646;2023-05-10T07:56:47;7.83;;;7.23;;
8596;SDS011;4336;49.310;8.646;2023-05-10T07:59:16;5.90;;;5.40;;
8596;SDS011;4336;49.310;8.646;2023-05-10T08:01:42;8.00;;;7.30;;
8596;SDS011;4336;49.310;8.646;2023-05-10T08:04:08;7.30;;;6.80;;
8596;SDS011;4336;49.310;8.646;2023-05-10T08:06:34;15.77;;;14.17;;
8596;SDS011;4336;49.310;8.646;2023-05-10T08:09:00;9.90;;;7.37;;
8596;SDS011;4336;49.310;8.646;2023-05-10T08:11:26;10.27;;;8.10;;
8596;SDS011;4336;49.310;8.646;2023-05-10T08:13:55;9.03;;;7.27;;
8596;SDS011;4336;49.310;8.646;2023-05-10T08:16:21;7.90;;;7.10;;
8596;SDS011;4336;49.310;8.646;2023-05-10T08:18:47;7.47;;;6.67;;
8596;SDS011;4336;49.310;8.646;2023-05-10T08:21:13;7.40;;;6.73;;
8596;SDS011;4336;49.310;8.646;2023-05-10T08:23:39;6.57;;;5.47;;
8596;SDS011;4336;49.310;8.646;2023-05-10T08:26:06;7.23;;;6.50;;
8596;SDS011;4336;49.310;8.646;2023-05-10T08:28:31;7.43;;;6.60;;
8596;SDS011;4336;49.310;8.646;2023-05-10T08:30:57;8.43;;;7.80;;
8596;SDS011;4336;49.310;8.646;2023-05-10T08:33:23;7.57;;;6.80;;
8596;SDS011;4336;49.310;8.646;2023-05-10T08:35:49;6.63;;;6.07;;
8596;SDS011;4336;49.310;8.646;2023-05-10T08:38:14;6.83;;;6.23;;
8596;SDS011;4336;49.310;8.646;2023-05-10T08:40:41;35.10;;;6.77;;
8596;SDS011;4336;49.310;8.646;2023-05-10T08:43:09;30.73;;;8.50;;
8596;SDS011;4336;49.310;8.646;2023-05-10T08:45:40;7.50;;;6.70;;
8596;SDS011;4336;49.310;8.646;2023-05-10T08:48:08;6.87;;;6.37;;
8596;SDS011;4336;49.310;8.646;2023-05-10T08:50:41;6.40;;;5.90;;
8596;SDS011;4336;49.310;8.646;2023-05-10T08:53:11;6.83;;;6.10;;
8596;SDS011;4336;49.310;8.646;2023-05-10T08:55:38;6.27;;;5.77;;
8596;SDS011;4336;49.310;8.646;2023-05-10T08:58:05;5.90;;;5.50;;
8596;SDS011;4336;49.310;8.646;2023-05-10T09:00:32;6.10;;;5.70;;
8596;SDS011;4336;49.310;8.646;2023-05-10T09:02:58;9.80;;;7.43;;
8596;SDS011;4336;49.310;8.646;2023-05-10T09:05:24;7.47;;;5.70;;
8596;SDS011;4336;49.310;8.646;2023-05-10T09:07:49;7.03;;;6.07;;
8596;SDS011;4336;49.310;8.646;2023-05-10T09:10:15;6.37;;;5.77;;
8596;SDS011;4336;49.310;8.646;2023-05-10T09:12:41;6.27;;;5.77;;
8596;SDS011;4336;49.310;8.646;2023-05-10T09:15:09;6.00;;;5.50;;
8596;SDS011;4336;49.310;8.646;2023-05-10T09:17:35;5.93;;;5.53;;
8596;SDS011;4336;49.310;8.646;2023-05-10T09:20:02;6.70;;;6.10;;
8596;SDS011;4336;49.310;8.646;2023-05-10T09:22:32;6.10;;;5.70;;
8596;SDS011;4336;49.310;8.646;2023-05-10T09:27:32;4.47;;;4.07;;
8596;SDS011;4336;49.310;8.646;2023-05-10T09:29:58;6.27;;;5.77;;
8596;SDS011;4336;49.310;8.646;2023-05-10T09:35:10;7.00;;;5.50;;
8596;SDS011;4336;49.310;8.646;2023-05-10T09:37:40;7.03;;;6.33;;
8596;SDS011;4336;49.310;8.646;2023-05-10T09:40:14;6.10;;;5.60;;
8596;SDS011;4336;49.310;8.646;2023-05-10T09:42:51;6.27;;;5.77;;
8596;SDS011;4336;49.310;8.646;2023-05-10T09:45:17;7.67;;;7.07;;
8596;SDS011;4336;49.310;8.646;2023-05-10T09:47:43;6.97;;;6.37;;
8596;SDS011;4336;49.310;8.646;2023-05-10T09:50:10;6.23;;;5.83;;
8596;SDS011;4336;49.310;8.646;2023-05-10T09:52:55;7.70;;;5.87;;
8596;SDS011;4336;49.310;8.646;2023-05-10T09:58:06;4.73;;;4.13;;
8596;SDS011;4336;49.310;8.646;2023-05-10T10:00:45;8.40;;;5.80;;
8596;SDS011;4336;49.310;8.646;2023-05-10T10:03:19;4.93;;;4.53;;
8596;SDS011;4336;49.310;8.646;2023-05-10T10:05:46;5.57;;;5.17;;
8596;SDS011;4336;49.310;8.646;2023-05-10T10:08:13;5.00;;;4.60;;
8596;SDS011;4336;49.310;8.646;2023-05-10T10:10:39;6.00;;;5.60;;
8596;SDS011;4336;49.310;8.646;2023-05-10T10:13:05;7.30;;;6.60;;
8596;SDS011;4336;49.310;8.646;2023-05-10T10:15:32;6.13;;;5.53;;
8596;SDS011;4336;49.310;8.646;2023-05-10T10:17:59;6.80;;;6.13;;
8596;SDS011;4336;49.310;8.646;2023-05-10T10:20:25;5.70;;;5.30;;
8596;SDS011;4336;49.310;8.646;2023-05-10T10:22:52;8.97;;;6.33;;
8596;SDS011;4336;49.310;8.646;2023-05-10T10:25:18;7.17;;;6.47;;
8596;SDS011;4336;49.310;8.646;2023-05-10T10:33:26;11.00;;;9.83;;
8596;SDS011;4336;49.310;8.646;2023-05-10T10:35:58;7.73;;;7.03;;
8596;SDS011;4336;49.310;8.646;2023-05-10T10:38:24;5.77;;;5.37;;
8596;SDS011;4336;49.310;8.646;2023-05-10T10:41:03;6.10;;;5.50;;
8596;SDS011;4336;49.310;8.646;2023-05-10T10:43:35;5.43;;;5.13;;
8596;SDS011;4336;49.310;8.646;2023-05-10T10:48:40;6.20;;;5.50;;
8596;SDS011;4336;49.310;8.646;2023-05-10T10:51:13;5.20;;;4.90;;
8596;SDS011;4336;49.310;8.646;2023-05-10T10:53:39;6.33;;;5.80;;
8596;SDS011;4336;49.310;8.646;2023-05-10T10:56:09;6.20;;;5.80;;
8596;SDS011;4336;49.310;8.646;2023-05-10T10:58:37;8.40;;;5.80;;
8596;SDS011;4336;49.310;8.646;2023-05-10T11:01:13;7.03;;;6.47;;
8596;SDS011;4336;49.310;8.646;2023-05-10T11:03:40;6.47;;;5.97;;
8596;SDS011;4336;49.310;8.646;2023-05-10T11:06:28;6.23;;;5.73;;
8596;SDS011;4336;49.310;8.646;2023-05-10T11:08:56;5.07;;;4.70;;
8596;SDS011;4336;49.310;8.646;2023-05-10T11:11:22;5.93;;;5.43;;
8596;SDS011;4336;49.310;8.646;2023-05-10T11:13:48;6.90;;;5.40;;
8596;SDS011;4336;49.310;8.646;2023-05-10T11:18:56;4.90;;;4.60;;
8596;SDS011;4336;49.310;8.646;2023-05-10T11:21:30;6.70;;;4.27;;
8596;SDS011;4336;49.310;8.646;2023-05-10T11:23:57;6.40;;;5.90;;
8596;SDS011;4336;49.310;8.646;2023-05-10T11:26:24;6.60;;;5.63;;
8596;SDS011;4336;49.310;8.646;2023-05-10T11:28:51;7.17;;;5.63;;
8596;SDS011;4336;49.310;8.646;2023-05-10T11:31:20;8.00;;;6.73;;
8596;SDS011;4336;49.310;8.646;2023-05-10T11:33:50;6.10;;;5.60;;
8596;SDS011;4336;49.310;8.646;2023-05-10T11:36:18;9.60;;;6.23;;
8596;SDS011;4336;49.310;8.646;2023-05-10T11:39:14;5.97;;;5.53;;
8596;SDS011;4336;49.310;8.646;2023-05-10T11:41:39;8.17;;;7.37;;
8596;SDS011;4336;49.310;8.646;2023-05-10T11:44:05;5.10;;;4.70;;
8596;SDS011;4336;49.310;8.646;2023-05-10T11:46:31;7.20;;;6.50;;
8596;SDS011;4336;49.310;8.646;2023-05-10T11:49:00;6.53;;;5.97;;
8596;SDS011;4336;49.310;8.646;2023-05-10T11:51:27;7.03;;;6.43;;
8596;SDS011;4336;49.310;8.646;2023-05-10T11:53:53;6.70;;;6.20;;
8596;SDS011;4336;49.310;8.646;2023-05-10T11:56:20;6.47;;;5.90;;
8596;SDS011;4336;49.310;8.646;2023-05-10T11:58:51;6.73;;;6.20;;
8596;SDS011;4336;49.310;8.646;2023-05-10T12:01:21;7.40;;;5.80;;
8596;SDS011;4336;49.310;8.646;2023-05-10T12:03:48;7.93;;;5.77;;
8596;SDS011;4336;49.310;8.646;2023-05-10T12:06:15;6.47;;;5.97;;
8596;SDS011;4336;49.310;8.646;2023-05-10T12:08:46;6.77;;;6.17;;
8596;SDS011;4336;49.310;8.646;2023-05-10T12:11:12;7.03;;;6.33;;
8596;SDS011;4336;49.310;8.646;2023-05-10T12:13:41;7.73;;;6.20;;
8596;SDS011;4336;49.310;8.646;2023-05-10T12:16:22;7.03;;;6.33;;
8596;SDS011;4336;49.310;8.646;2023-05-10T12:18:49;6.60;;;6.07;;
8596;SDS011;4336;49.310;8.646;2023-05-10T12:21:22;6.80;;;6.10;;
8596;SDS011;4336;49.310;8.646;2023-05-10T12:23:50;7.27;;;5.83;;
8596;SDS011;4336;49.310;8.646;2023-05-10T12:26:16;8.37;;;5.87;;
8596;SDS011;4336;49.310;8.646;2023-05-10T12:28:42;6.50;;;5.83;;
8596;SDS011;4336;49.310;8.646;2023-05-10T12:31:08;8.60;;;7.40;;
8596;SDS011;4336;49.310;8.646;2023-05-10T12:33:38;6.77;;;6.13;;
8596;SDS011;4336;49.310;8.646;2023-05-10T12:36:09;8.27;;;5.63;;
8596;SDS011;4336;49.310;8.646;2023-05-10T12:38:37;8.93;;;6.13;;
8596;SDS011;4336;49.310;8.646;2023-05-10T12:41:05;8.93;;;6.47;;
8596;SDS011;4336;49.310;8.646;2023-05-10T12:43:32;6.67;;;5.97;;
8596;SDS011;4336;49.310;8.646;2023-05-10T12:45:58;6.53;;;5.93;;
8596;SDS011;4336;49.310;8.646;2023-05-10T12:48:29;6.77;;;6.20;;
8596;SDS011;4336;49.310;8.646;2023-05-10T12:50:56;7.13;;;6.43;;
8596;SDS011;4336;49.310;8.646;2023-05-10T12:53:22;11.13;;;5.90;;
8596;SDS011;4336;49.310;8.646;2023-05-10T12:55:48;7.93;;;7.23;;
8596;SDS011;4336;49.310;8.646;2023-05-10T12:58:13;7.10;;;6.40;;
8596;SDS011;4336;49.310;8.646;2023-05-10T13:00:39;9.87;;;7.27;;
8596;SDS011;4336;49.310;8.646;2023-05-10T13:03:05;8.33;;;7.53;;
8596;SDS011;4336;49.310;8.646;2023-05-10T13:05:34;8.87;;;7.13;;
8596;SDS011;4336;49.310;8.646;2023-05-10T13:07:59;6.63;;;6.03;;
8596;SDS011;4336;49.310;8.646;2023-05-10T13:10:25;7.60;;;7.10;;
8596;SDS011;4336;49.310;8.646;2023-05-10T13:12:51;8.53;;;5.10;;
8596;SDS011;4336;49.310;8.646;2023-05-10T13:15:17;7.43;;;6.63;;
8596;SDS011;4336;49.310;8.646;2023-05-10T13:17:43;8.17;;;6.50;;
8596;SDS011;4336;49.310;8.646;2023-05-10T13:20:10;6.77;;;5.57;;
8596;SDS011;4336;49.310;8.646;2023-05-10T13:22:36;9.73;;;8.03;;
8596;SDS011;4336;49.310;8.646;2023-05-10T13:25:02;8.37;;;6.97;;
8596;SDS011;4336;49.310;8.646;2023-05-10T13:27:28;6.10;;;5.53;;
8596;SDS011;4336;49.310;8.646;2023-05-10T13:29:54;7.23;;;6.37;;
8596;SDS011;4336;49.310;8.646;2023-05-10T13:32:20;9.87;;;6.97;;
8596;SDS011;4336;49.310;8.646;2023-05-10T13:34:46;5.73;;;5.33;;
8596;SDS011;4336;49.310;8.646;2023-05-10T13:37:12;7.37;;;6.70;;
8596;SDS011;4336;49.310;8.646;2023-05-10T13:39:37;8.40;;;6.70;;
8596;SDS011;4336;49.310;8.646;2023-05-10T13:42:03;5.80;;;5.40;;
8596;SDS011;4336;49.310;8.646;2023-05-10T13:44:29;7.27;;;6.57;;
8596;SDS011;4336;49.310;8.646;2023-05-10T13:46:56;6.60;;;6.00;;
8596;SDS011;4336;49.310;8.646;2023-05-10T13:49:22;6.73;;;5.53;;
8596;SDS011;4336;49.310;8.646;2023-05-10T13:51:48;7.23;;;6.63;;
8596;SDS011;4336;49.310;8.646;2023-05-10T13:54:13;7.60;;;6.17;;
8596;SDS011;4336;49.310;8.646;2023-05-10T13:56:39;6.20;;;5.60;;
8596;SDS011;4336;49.310;8.646;2023-05-10T13:59:07;11.73;;;6.83;;
8596;SDS011;4336;49.310;8.646;2023-05-10T14:01:33;8.90;;;6.07;;
8596;SDS011;4336;49.310;8.646;2023-05-10T14:03:59;6.00;;;5.50;;
8596;SDS011;4336;49.310;8.646;2023-05-10T14:06:25;6.90;;;6.33;;
8596;SDS011;4336;49.310;8.646;2023-05-10T14:08:52;6.13;;;5.70;;
8596;SDS011;4336;49.310;8.646;2023-05-10T14:11:18;5.37;;;4.87;;
8596;SDS011;4336;49.310;8.646;2023-05-10T14:13:44;6.87;;;6.27;;
8596;SDS011;4336;49.310;8.646;2023-05-10T14:16:10;6.13;;;5.60;;
8596;SDS011;4336;49.310;8.646;2023-05-10T14:18:36;4.90;;;4.60;;
8596;SDS011;4336;49.310;8.646;2023-05-10T14:21:03;6.53;;;5.03;;
8596;SDS011;4336;49.310;8.646;2023-05-10T14:23:29;6.13;;;5.63;;
8596;SDS011;4336;49.310;8.646;2023-05-10T14:25:55;5.57;;;5.17;;
8596;SDS011;4336;49.310;8.646;2023-05-10T14:28:21;6.53;;;5.70;;
8596;SDS011;4336;49.310;8.646;2023-05-10T14:30:48;6.60;;;4.73;;
8596;SDS011;4336;49.310;8.646;2023-05-10T14:33:14;5.20;;;4.80;;
8596;SDS011;4336;49.310;8.646;2023-05-10T14:35:42;7.10;;;6.00;;
8596;SDS011;4336;49.310;8.646;2023-05-10T14:38:08;6.77;;;5.60;;
8596;SDS011;4336;49.310;8.646;2023-05-10T14:40:34;6.53;;;5.87;;
8596;SDS011;4336;49.310;8.646;2023-05-10T14:43:00;5.60;;;5.20;;
8596;SDS011;4336;49.310;8.646;2023-05-10T14:45:26;5.80;;;5.30;;
8596;SDS011;4336;49.310;8.646;2023-05-10T14:47:51;6.43;;;5.63;;
8596;SDS011;4336;49.310;8.646;2023-05-10T14:50:17;6.73;;;4.87;;
8596;SDS011;4336;49.310;8.646;2023-05-10T14:52:43;5.90;;;5.40;;
8596;SDS011;4336;49.310;8.646;2023-05-10T14:55:09;6.10;;;5.70;;
8596;SDS011;4336;49.310;8.646;2023-05-10T14:57:35;6.63;;;5.80;;
8596;SDS011;4336;49.310;8.646;2023-05-10T15:00:02;5.97;;;5.47;;
8596;SDS011;4336;49.310;8.646;2023-05-10T15:02:28;4.73;;;4.17;;
8596;SDS011;4336;49.310;8.646;2023-05-10T15:04:55;5.03;;;4.73;;
8596;SDS011;4336;49.310;8.646;2023-05-10T15:07:22;8.00;;;5.73;;
8596;SDS011;4336;49.310;8.646;2023-05-10T15:09:48;5.80;;;5.30;;
8596;SDS011;4336;49.310;8.646;2023-05-10T15:12:15;6.70;;;5.50;;
8596;SDS011;4336;49.310;8.646;2023-05-10T15:14:41;6.07;;;5.57;;
8596;SDS011;4336;49.310;8.646;2023-05-10T15:17:09;7.07;;;5.63;;
8596;SDS011;4336;49.310;8.646;2023-05-10T15:19:35;8.37;;;5.80;;
8596;SDS011;4336;49.310;8.646;2023-05-10T15:22:01;7.73;;;7.13;;
8596;SDS011;4336;49.310;8.646;2023-05-10T15:24:27;5.90;;;5.30;;
8596;SDS011;4336;49.310;8.646;2023-05-10T15:26:54;6.20;;;5.33;;
8596;SDS011;4336;49.310;8.646;2023-05-10T15:29:20;6.30;;;5.33;;
8596;SDS011;4336;49.310;8.646;2023-05-10T15:31:49;5.70;;;5.30;;
8596;SDS011;4336;49.310;8.646;2023-05-10T15:34:15;6.27;;;5.67;;
8596;SDS011;4336;49.310;8.646;2023-05-10T15:36:42;5.90;;;5.40;;
8596;SDS011;4336;49.310;8.646;2023-05-10T15:39:08;6.13;;;5.57;;
8596;SDS011;4336;49.310;8.646;2023-05-10T15:41:37;6.03;;;5.53;;
8596;SDS011;4336;49.310;8.646;2023-05-10T15:44:03;6.57;;;5.60;;
8596;SDS011;4336;49.310;8.646;2023-05-10T15:46:29;6.17;;;5.57;;
8596;SDS011;4336;49.310;8.646;2023-05-10T15:48:55;6.70;;;5.27;;